sensor_id;sensor_type;location;lat;lon;timestamp;P1;durP1;ratioP1;P2;durP2;ratioP2
19374;SDS011;9823;50.936;4.046;2022-07-23T00:00:53;39.37;;;18.77;;
19374;SDS011;9823;50.936;4.046;2022-07-23T00:03:19;22.10;;;13.50;;
19374;SDS011;9823;50.936;4.046;2022-07-23T00:05:45;62.73;;;25.87;;
19374;SDS011;9823;50.936;4.046;2022-07-23T00:08:11;23.73;;;14.10;;
19374;SDS011;9823;50.936;4.046;2022-07-23T00:10:38;43.97;;;20.37;;
19374;SDS011;9823;50.936;4.046;2022-07-23T00:13:04;36.27;;;18.17;;
19374;SDS011;9823;50.936;4.046;2022-07-23T00:15:30;45.77;;;19.20;;
19374;SDS011;9823;50.936;4.046;2022-07-23T00:17:58;35.03;;;17.20;;
19374;SDS011;9823;50.936;4.046;2022-07-23T00:20:24;40.30;;;19.83;;
19374;SDS011;9823;50.936;4.046;2022-07-23T00:22:51;62.57;;;23.93;;
19374;SDS011;9823;50.936;4.046;2022-07-23T00:25:20;42.77;;;20.03;;
19374;SDS011;9823;50.936;4.046;2022-07-23T00:27:46;32.00;;;17.97;;
19374;SDS011;9823;50.936;4.046;2022-07-23T00:30:12;43.53;;;22.20;;
19374;SDS011;9823;50.936;4.046;2022-07-23T00:32:48;58.80;;;23.87;;
19374;SDS011;9823;50.936;4.046;2022-07-23T00:35:14;59.07;;;23.87;;
19374;SDS011;9823;50.936;4.046;2022-07-23T00:37:40;56.43;;;24.57;;
19374;SDS011;9823;50.936;4.046;2022-07-23T00:40:07;88.93;;;30.47;;
19374;SDS011;9823;50.936;4.046;2022-07-23T00:42:35;86.80;;;31.83;;
19374;SDS011;9823;50.936;4.046;2022-07-23T00:45:02;60.17;;;26.77;;
19374;SDS011;9823;50.936;4.046;2022-07-23T00:47:28;49.03;;;21.60;;
19374;SDS011;9823;50.936;4.046;2022-07-23T00:49:54;45.13;;;18.97;;
19374;SDS011;9823;50.936;4.046;2022-07-23T00:52:20;32.37;;;18.40;;
19374;SDS011;9823;50.936;4.046;2022-07-23T00:54:46;67.80;;;27.03;;
19374;SDS011;9823;50.936;4.046;2022-07-23T00:57:12;25.07;;;14.93;;
19374;SDS011;9823;50.936;4.046;2022-07-23T00:59:39;20.10;;;13.10;;
19374;SDS011;9823;50.936;4.046;2022-07-23T01:02:07;25.87;;;14.47;;
19374;SDS011;9823;50.936;4.046;2022-07-23T01:04:36;24.33;;;15.23;;
19374;SDS011;9823;50.936;4.046;2022-07-23T01:07:02;34.93;;;18.23;;
19374;SDS011;9823;50.936;4.046;2022-07-23T01:09:31;30.70;;;17.80;;
19374;SDS011;9823;50.936;4.046;2022-07-23T01:11:59;25.50;;;15.30;;
19374;SDS011;9823;50.936;4.046;2022-07-23T01:14:25;27.10;;;15.00;;
19374;SDS011;9823;50.936;4.046;2022-07-23T01:16:51;27.13;;;15.87;;
19374;SDS011;9823;50.936;4.046;2022-07-23T01:19:20;58.70;;;26.60;;
19374;SDS011;9823;50.936;4.046;2022-07-23T01:21:47;75.87;;;30.90;;
19374;SDS011;9823;50.936;4.046;2022-07-23T01:24:13;61.17;;;26.00;;
19374;SDS011;9823;50.936;4.046;2022-07-23T01:26:44;103.20;;;35.33;;
19374;SDS011;9823;50.936;4.046;2022-07-23T01:29:15;30.87;;;17.90;;
19374;SDS011;9823;50.936;4.046;2022-07-23T01:31:42;62.83;;;26.97;;
19374;SDS011;9823;50.936;4.046;2022-07-23T01:34:08;113.73;;;39.50;;
19374;SDS011;9823;50.936;4.046;2022-07-23T01:36:35;155.70;;;51.20;;
19374;SDS011;9823;50.936;4.046;2022-07-23T01:39:04;49.00;;;25.37;;
19374;SDS011;9823;50.936;4.046;2022-07-23T01:41:30;36.90;;;21.03;;
19374;SDS011;9823;50.936;4.046;2022-07-23T01:43:56;51.10;;;26.87;;
19374;SDS011;9823;50.936;4.046;2022-07-23T01:46:22;106.87;;;41.63;;
19374;SDS011;9823;50.936;4.046;2022-07-23T01:48:48;46.03;;;23.43;;
19374;SDS011;9823;50.936;4.046;2022-07-23T01:51:14;80.47;;;32.10;;
19374;SDS011;9823;50.936;4.046;2022-07-23T01:53:40;72.00;;;30.63;;
19374;SDS011;9823;50.936;4.046;2022-07-23T01:56:06;60.33;;;26.70;;
19374;SDS011;9823;50.936;4.046;2022-07-23T01:58:32;84.50;;;31.47;;
19374;SDS011;9823;50.936;4.046;2022-07-23T02:00:59;67.53;;;27.20;;
19374;SDS011;9823;50.936;4.046;2022-07-23T02:03:25;50.20;;;24.87;;
19374;SDS011;9823;50.936;4.046;2022-07-23T02:05:51;105.10;;;37.77;;
19374;SDS011;9823;50.936;4.046;2022-07-23T02:08:17;65.27;;;27.00;;
19374;SDS011;9823;50.936;4.046;2022-07-23T02:10:44;73.63;;;28.83;;
19374;SDS011;9823;50.936;4.046;2022-07-23T02:13:10;103.43;;;36.00;;
19374;SDS011;9823;50.936;4.046;2022-07-23T02:15:36;61.57;;;26.27;;
19374;SDS011;9823;50.936;4.046;2022-07-23T02:18:03;29.57;;;19.00;;
19374;SDS011;9823;50.936;4.046;2022-07-23T02:20:33;28.07;;;17.70;;
19374;SDS011;9823;50.936;4.046;2022-07-23T02:23:03;26.83;;;17.27;;
19374;SDS011;9823;50.936;4.046;2022-07-23T02:25:29;49.37;;;23.57;;
19374;SDS011;9823;50.936;4.046;2022-07-23T02:27:55;29.40;;;17.77;;
19374;SDS011;9823;50.936;4.046;2022-07-23T02:30:21;42.13;;;21.20;;
19374;SDS011;9823;50.936;4.046;2022-07-23T02:32:47;31.10;;;19.17;;
19374;SDS011;9823;50.936;4.046;2022-07-23T02:35:13;30.37;;;16.70;;
19374;SDS011;9823;50.936;4.046;2022-07-23T02:37:42;40.03;;;20.57;;
19374;SDS011;9823;50.936;4.046;2022-07-23T02:40:08;29.40;;;17.27;;
19374;SDS011;9823;50.936;4.046;2022-07-23T02:42:34;31.70;;;17.67;;
19374;SDS011;9823;50.936;4.046;2022-07-23T02:45:03;37.03;;;18.97;;
19374;SDS011;9823;50.936;4.046;2022-07-23T02:47:31;30.40;;;18.40;;
19374;SDS011;9823;50.936;4.046;2022-07-23T02:49:59;32.73;;;18.73;;
19374;SDS011;9823;50.936;4.046;2022-07-23T02:52:32;33.03;;;18.33;;
19374;SDS011;9823;50.936;4.046;2022-07-23T02:55:01;33.80;;;17.17;;
19374;SDS011;9823;50.936;4.046;2022-07-23T02:57:27;40.63;;;19.47;;
19374;SDS011;9823;50.936;4.046;2022-07-23T02:59:55;32.87;;;18.80;;
19374;SDS011;9823;50.936;4.046;2022-07-23T03:02:21;34.10;;;17.50;;
19374;SDS011;9823;50.936;4.046;2022-07-23T03:04:48;39.63;;;19.83;;
19374;SDS011;9823;50.936;4.046;2022-07-23T03:07:17;44.70;;;21.03;;
19374;SDS011;9823;50.936;4.046;2022-07-23T03:09:50;36.13;;;18.23;;
19374;SDS011;9823;50.936;4.046;2022-07-23T03:12:16;26.07;;;16.37;;
19374;SDS011;9823;50.936;4.046;2022-07-23T03:14:42;29.90;;;16.47;;
19374;SDS011;9823;50.936;4.046;2022-07-23T03:17:08;23.40;;;15.67;;
19374;SDS011;9823;50.936;4.046;2022-07-23T03:19:34;26.03;;;16.03;;
19374;SDS011;9823;50.936;4.046;2022-07-23T03:22:02;25.33;;;15.57;;
19374;SDS011;9823;50.936;4.046;2022-07-23T03:24:28;22.03;;;15.70;;
19374;SDS011;9823;50.936;4.046;2022-07-23T03:27:13;24.30;;;15.70;;
19374;SDS011;9823;50.936;4.046;2022-07-23T03:29:47;26.10;;;15.50;;
19374;SDS011;9823;50.936;4.046;2022-07-23T03:32:15;30.13;;;17.03;;
19374;SDS011;9823;50.936;4.046;2022-07-23T03:34:44;26.53;;;17.17;;
19374;SDS011;9823;50.936;4.046;2022-07-23T03:37:10;33.63;;;19.40;;
19374;SDS011;9823;50.936;4.046;2022-07-23T03:39:36;35.80;;;18.97;;
19374;SDS011;9823;50.936;4.046;2022-07-23T03:42:02;28.67;;;18.43;;
19374;SDS011;9823;50.936;4.046;2022-07-23T03:44:28;33.50;;;20.10;;
19374;SDS011;9823;50.936;4.046;2022-07-23T03:46:54;28.17;;;16.40;;
19374;SDS011;9823;50.936;4.046;2022-07-23T03:49:22;27.13;;;15.20;;
19374;SDS011;9823;50.936;4.046;2022-07-23T03:51:48;26.07;;;15.53;;
19374;SDS011;9823;50.936;4.046;2022-07-23T03:54:14;25.20;;;15.50;;
19374;SDS011;9823;50.936;4.046;2022-07-23T03:56:40;23.30;;;15.13;;
19374;SDS011;9823;50.936;4.046;2022-07-23T03:59:22;21.50;;;15.00;;
19374;SDS011;9823;50.936;4.046;2022-07-23T04:01:48;25.33;;;15.30;;
19374;SDS011;9823;50.936;4.046;2022-07-23T04:04:14;30.83;;;16.47;;
19374;SDS011;9823;50.936;4.046;2022-07-23T04:06:46;21.87;;;14.23;;
19374;SDS011;9823;50.936;4.046;2022-07-23T04:09:14;24.23;;;16.77;;
19374;SDS011;9823;50.936;4.046;2022-07-23T04:11:40;25.53;;;14.97;;
19374;SDS011;9823;50.936;4.046;2022-07-23T04:14:09;24.80;;;15.70;;
19374;SDS011;9823;50.936;4.046;2022-07-23T04:16:39;25.13;;;16.20;;
19374;SDS011;9823;50.936;4.046;2022-07-23T04:19:05;26.43;;;16.17;;
19374;SDS011;9823;50.936;4.046;2022-07-23T04:21:33;27.20;;;16.80;;
19374;SDS011;9823;50.936;4.046;2022-07-23T04:23:59;24.17;;;15.53;;
19374;SDS011;9823;50.936;4.046;2022-07-23T04:26:26;27.60;;;16.07;;
19374;SDS011;9823;50.936;4.046;2022-07-23T04:28:51;28.43;;;16.03;;
19374;SDS011;9823;50.936;4.046;2022-07-23T04:31:17;27.43;;;15.30;;
19374;SDS011;9823;50.936;4.046;2022-07-23T04:33:43;24.80;;;15.93;;
19374;SDS011;9823;50.936;4.046;2022-07-23T04:36:09;29.17;;;16.53;;
19374;SDS011;9823;50.936;4.046;2022-07-23T04:38:35;21.30;;;15.47;;
19374;SDS011;9823;50.936;4.046;2022-07-23T04:41:01;26.03;;;15.53;;
19374;SDS011;9823;50.936;4.046;2022-07-23T04:43:28;24.30;;;16.10;;
19374;SDS011;9823;50.936;4.046;2022-07-23T04:45:54;28.43;;;17.03;;
19374;SDS011;9823;50.936;4.046;2022-07-23T04:48:20;22.87;;;15.17;;
19374;SDS011;9823;50.936;4.046;2022-07-23T04:50:46;24.10;;;15.60;;
19374;SDS011;9823;50.936;4.046;2022-07-23T04:53:12;22.80;;;15.70;;
19374;SDS011;9823;50.936;4.046;2022-07-23T04:55:38;21.73;;;14.93;;
19374;SDS011;9823;50.936;4.046;2022-07-23T04:58:04;23.53;;;15.67;;
19374;SDS011;9823;50.936;4.046;2022-07-23T05:00:30;22.33;;;14.93;;
19374;SDS011;9823;50.936;4.046;2022-07-23T05:02:56;29.50;;;14.77;;
19374;SDS011;9823;50.936;4.046;2022-07-23T05:05:22;28.23;;;14.20;;
19374;SDS011;9823;50.936;4.046;2022-07-23T05:07:48;19.07;;;14.37;;
19374;SDS011;9823;50.936;4.046;2022-07-23T05:10:14;22.13;;;13.83;;
19374;SDS011;9823;50.936;4.046;2022-07-23T05:12:40;18.17;;;13.70;;
19374;SDS011;9823;50.936;4.046;2022-07-23T05:15:06;21.10;;;13.63;;
19374;SDS011;9823;50.936;4.046;2022-07-23T05:17:35;27.33;;;15.33;;
19374;SDS011;9823;50.936;4.046;2022-07-23T05:20:01;38.67;;;19.30;;
19374;SDS011;9823;50.936;4.046;2022-07-23T05:22:28;30.17;;;16.70;;
19374;SDS011;9823;50.936;4.046;2022-07-23T05:24:54;31.50;;;15.57;;
19374;SDS011;9823;50.936;4.046;2022-07-23T05:27:20;32.47;;;16.30;;
19374;SDS011;9823;50.936;4.046;2022-07-23T05:29:46;30.90;;;16.87;;
19374;SDS011;9823;50.936;4.046;2022-07-23T05:32:14;19.63;;;14.23;;
19374;SDS011;9823;50.936;4.046;2022-07-23T05:34:40;23.87;;;13.57;;
19374;SDS011;9823;50.936;4.046;2022-07-23T05:37:06;35.20;;;16.37;;
19374;SDS011;9823;50.936;4.046;2022-07-23T05:39:32;27.33;;;13.87;;
19374;SDS011;9823;50.936;4.046;2022-07-23T05:41:58;26.40;;;14.33;;
19374;SDS011;9823;50.936;4.046;2022-07-23T05:44:24;42.17;;;16.97;;
19374;SDS011;9823;50.936;4.046;2022-07-23T05:46:52;33.63;;;15.43;;
19374;SDS011;9823;50.936;4.046;2022-07-23T05:49:18;43.87;;;19.17;;
19374;SDS011;9823;50.936;4.046;2022-07-23T05:51:44;43.53;;;18.17;;
19374;SDS011;9823;50.936;4.046;2022-07-23T05:54:10;34.83;;;17.07;;
19374;SDS011;9823;50.936;4.046;2022-07-23T05:56:36;37.10;;;17.90;;
19374;SDS011;9823;50.936;4.046;2022-07-23T05:59:04;59.53;;;23.23;;
19374;SDS011;9823;50.936;4.046;2022-07-23T06:01:31;25.70;;;12.13;;
19374;SDS011;9823;50.936;4.046;2022-07-23T06:03:59;17.50;;;11.67;;
19374;SDS011;9823;50.936;4.046;2022-07-23T06:06:25;18.13;;;12.10;;
19374;SDS011;9823;50.936;4.046;2022-07-23T06:08:51;15.10;;;10.80;;
19374;SDS011;9823;50.936;4.046;2022-07-23T06:11:18;15.43;;;10.97;;
19374;SDS011;9823;50.936;4.046;2022-07-23T06:13:44;15.37;;;11.07;;
19374;SDS011;9823;50.936;4.046;2022-07-23T06:16:10;19.73;;;11.83;;
19374;SDS011;9823;50.936;4.046;2022-07-23T06:18:36;59.37;;;24.20;;
19374;SDS011;9823;50.936;4.046;2022-07-23T06:21:02;21.13;;;12.67;;
19374;SDS011;9823;50.936;4.046;2022-07-23T06:23:28;18.97;;;12.07;;
19374;SDS011;9823;50.936;4.046;2022-07-23T06:25:54;15.03;;;9.73;;
19374;SDS011;9823;50.936;4.046;2022-07-23T06:28:20;22.73;;;11.30;;
19374;SDS011;9823;50.936;4.046;2022-07-23T06:30:46;23.43;;;13.50;;
19374;SDS011;9823;50.936;4.046;2022-07-23T06:33:12;20.53;;;13.90;;
19374;SDS011;9823;50.936;4.046;2022-07-23T06:35:38;12.93;;;9.97;;
19374;SDS011;9823;50.936;4.046;2022-07-23T06:38:04;14.97;;;11.17;;
19374;SDS011;9823;50.936;4.046;2022-07-23T06:40:32;13.70;;;9.83;;
19374;SDS011;9823;50.936;4.046;2022-07-23T06:42:58;12.10;;;9.47;;
19374;SDS011;9823;50.936;4.046;2022-07-23T06:45:29;12.70;;;9.70;;
19374;SDS011;9823;50.936;4.046;2022-07-23T06:47:55;13.10;;;10.80;;
19374;SDS011;9823;50.936;4.046;2022-07-23T06:50:21;13.27;;;9.83;;
19374;SDS011;9823;50.936;4.046;2022-07-23T06:52:49;13.40;;;10.40;;
19374;SDS011;9823;50.936;4.046;2022-07-23T06:55:15;16.77;;;11.37;;
19374;SDS011;9823;50.936;4.046;2022-07-23T06:57:41;15.20;;;9.67;;
19374;SDS011;9823;50.936;4.046;2022-07-23T07:00:07;12.43;;;8.63;;
19374;SDS011;9823;50.936;4.046;2022-07-23T07:02:36;13.77;;;9.40;;
19374;SDS011;9823;50.936;4.046;2022-07-23T07:05:02;13.20;;;8.80;;
19374;SDS011;9823;50.936;4.046;2022-07-23T07:07:28;11.67;;;8.63;;
19374;SDS011;9823;50.936;4.046;2022-07-23T07:09:54;10.03;;;8.47;;
19374;SDS011;9823;50.936;4.046;2022-07-23T07:12:20;10.97;;;9.07;;
19374;SDS011;9823;50.936;4.046;2022-07-23T07:14:46;15.77;;;9.13;;
19374;SDS011;9823;50.936;4.046;2022-07-23T07:17:12;12.70;;;9.03;;
19374;SDS011;9823;50.936;4.046;2022-07-23T07:19:41;12.00;;;8.90;;
19374;SDS011;9823;50.936;4.046;2022-07-23T07:22:07;13.57;;;9.60;;
19374;SDS011;9823;50.936;4.046;2022-07-23T07:24:35;12.17;;;9.47;;
19374;SDS011;9823;50.936;4.046;2022-07-23T07:27:01;14.57;;;8.40;;
19374;SDS011;9823;50.936;4.046;2022-07-23T07:29:27;11.67;;;8.27;;
19374;SDS011;9823;50.936;4.046;2022-07-23T07:31:53;10.30;;;7.77;;
19374;SDS011;9823;50.936;4.046;2022-07-23T07:34:20;11.40;;;8.67;;
19374;SDS011;9823;50.936;4.046;2022-07-23T07:36:46;13.07;;;8.13;;
19374;SDS011;9823;50.936;4.046;2022-07-23T07:39:12;11.73;;;8.47;;
19374;SDS011;9823;50.936;4.046;2022-07-23T07:41:39;10.90;;;8.17;;
19374;SDS011;9823;50.936;4.046;2022-07-23T07:44:07;9.87;;;8.20;;
19374;SDS011;9823;50.936;4.046;2022-07-23T07:46:36;13.17;;;8.93;;
19374;SDS011;9823;50.936;4.046;2022-07-23T07:49:08;9.47;;;7.30;;
19374;SDS011;9823;50.936;4.046;2022-07-23T07:51:34;10.90;;;7.70;;
19374;SDS011;9823;50.936;4.046;2022-07-23T07:54:02;13.00;;;7.83;;
19374;SDS011;9823;50.936;4.046;2022-07-23T07:56:29;9.97;;;7.47;;
19374;SDS011;9823;50.936;4.046;2022-07-23T07:58:55;12.17;;;8.23;;
19374;SDS011;9823;50.936;4.046;2022-07-23T08:01:21;12.07;;;8.33;;
19374;SDS011;9823;50.936;4.046;2022-07-23T08:03:47;12.33;;;8.07;;
19374;SDS011;9823;50.936;4.046;2022-07-23T08:06:13;14.70;;;10.10;;
19374;SDS011;9823;50.936;4.046;2022-07-23T08:08:39;21.57;;;10.03;;
19374;SDS011;9823;50.936;4.046;2022-07-23T08:11:05;34.87;;;16.83;;
19374;SDS011;9823;50.936;4.046;2022-07-23T08:13:31;20.03;;;11.00;;
19374;SDS011;9823;50.936;4.046;2022-07-23T08:15:57;14.07;;;7.33;;
19374;SDS011;9823;50.936;4.046;2022-07-23T08:18:23;12.23;;;7.63;;
19374;SDS011;9823;50.936;4.046;2022-07-23T08:20:49;10.53;;;6.97;;
19374;SDS011;9823;50.936;4.046;2022-07-23T08:23:15;12.67;;;8.00;;
19374;SDS011;9823;50.936;4.046;2022-07-23T08:25:44;10.70;;;6.60;;
19374;SDS011;9823;50.936;4.046;2022-07-23T08:28:11;7.33;;;6.03;;
19374;SDS011;9823;50.936;4.046;2022-07-23T08:30:46;10.07;;;6.60;;
19374;SDS011;9823;50.936;4.046;2022-07-23T08:33:14;9.20;;;6.47;;
19374;SDS011;9823;50.936;4.046;2022-07-23T08:35:41;10.20;;;6.60;;
19374;SDS011;9823;50.936;4.046;2022-07-23T08:38:09;9.53;;;6.83;;
19374;SDS011;9823;50.936;4.046;2022-07-23T08:40:38;8.10;;;6.20;;
19374;SDS011;9823;50.936;4.046;2022-07-23T08:43:08;12.00;;;6.47;;
19374;SDS011;9823;50.936;4.046;2022-07-23T08:45:40;6.60;;;5.70;;
19374;SDS011;9823;50.936;4.046;2022-07-23T08:48:07;11.43;;;6.13;;
19374;SDS011;9823;50.936;4.046;2022-07-23T08:50:34;8.60;;;6.27;;
19374;SDS011;9823;50.936;4.046;2022-07-23T08:53:01;12.83;;;6.77;;
19374;SDS011;9823;50.936;4.046;2022-07-23T08:55:27;9.83;;;5.63;;
19374;SDS011;9823;50.936;4.046;2022-07-23T08:57:53;10.83;;;5.60;;
19374;SDS011;9823;50.936;4.046;2022-07-23T09:00:22;6.40;;;4.40;;
19374;SDS011;9823;50.936;4.046;2022-07-23T09:02:51;8.27;;;5.07;;
19374;SDS011;9823;50.936;4.046;2022-07-23T09:05:17;9.67;;;6.50;;
19374;SDS011;9823;50.936;4.046;2022-07-23T09:10:30;6.63;;;5.77;;
19374;SDS011;9823;50.936;4.046;2022-07-23T09:12:58;8.40;;;5.63;;
19374;SDS011;9823;50.936;4.046;2022-07-23T09:15:31;8.47;;;6.17;;
19374;SDS011;9823;50.936;4.046;2022-07-23T09:17:59;10.23;;;5.87;;
19374;SDS011;9823;50.936;4.046;2022-07-23T09:20:25;11.87;;;6.87;;
19374;SDS011;9823;50.936;4.046;2022-07-23T09:22:53;13.40;;;8.13;;
19374;SDS011;9823;50.936;4.046;2022-07-23T09:25:19;9.83;;;7.23;;
19374;SDS011;9823;50.936;4.046;2022-07-23T09:27:58;8.93;;;6.30;;
19374;SDS011;9823;50.936;4.046;2022-07-23T09:30:28;8.17;;;5.43;;
19374;SDS011;9823;50.936;4.046;2022-07-23T09:33:08;12.17;;;6.70;;
19374;SDS011;9823;50.936;4.046;2022-07-23T09:35:55;7.20;;;5.13;;
19374;SDS011;9823;50.936;4.046;2022-07-23T09:38:21;8.83;;;6.00;;
19374;SDS011;9823;50.936;4.046;2022-07-23T09:41:07;10.20;;;5.70;;
19374;SDS011;9823;50.936;4.046;2022-07-23T09:43:33;7.20;;;5.30;;
19374;SDS011;9823;50.936;4.046;2022-07-23T09:48:44;8.00;;;5.20;;
19374;SDS011;9823;50.936;4.046;2022-07-23T09:51:10;9.10;;;5.60;;
19374;SDS011;9823;50.936;4.046;2022-07-23T09:53:39;19.83;;;9.33;;
19374;SDS011;9823;50.936;4.046;2022-07-23T09:56:07;27.03;;;11.27;;
19374;SDS011;9823;50.936;4.046;2022-07-23T09:58:34;7.30;;;3.70;;
19374;SDS011;9823;50.936;4.046;2022-07-23T10:01:10;10.60;;;3.80;;
19374;SDS011;9823;50.936;4.046;2022-07-23T10:03:38;7.90;;;5.77;;
19374;SDS011;9823;50.936;4.046;2022-07-23T10:06:05;6.83;;;4.77;;
19374;SDS011;9823;50.936;4.046;2022-07-23T10:08:33;7.27;;;5.67;;
19374;SDS011;9823;50.936;4.046;2022-07-23T10:11:00;7.00;;;4.50;;
19374;SDS011;9823;50.936;4.046;2022-07-23T10:13:29;4.93;;;4.30;;
19374;SDS011;9823;50.936;4.046;2022-07-23T10:16:14;5.90;;;4.73;;
19374;SDS011;9823;50.936;4.046;2022-07-23T10:18:42;6.00;;;4.33;;
19374;SDS011;9823;50.936;4.046;2022-07-23T10:21:08;6.97;;;4.83;;
19374;SDS011;9823;50.936;4.046;2022-07-23T10:29:05;11.53;;;6.03;;
19374;SDS011;9823;50.936;4.046;2022-07-23T10:36:53;45.10;;;16.67;;
19374;SDS011;9823;50.936;4.046;2022-07-23T10:41:47;7.10;;;4.47;;
19374;SDS011;9823;50.936;4.046;2022-07-23T10:44:18;11.40;;;4.60;;
19374;SDS011;9823;50.936;4.046;2022-07-23T10:46:58;9.33;;;4.47;;
19374;SDS011;9823;50.936;4.046;2022-07-23T10:49:26;8.47;;;4.43;;
19374;SDS011;9823;50.936;4.046;2022-07-23T10:54:41;8.30;;;5.13;;
19374;SDS011;9823;50.936;4.046;2022-07-23T10:57:11;9.87;;;4.17;;
19374;SDS011;9823;50.936;4.046;2022-07-23T11:02:23;7.87;;;4.70;;
19374;SDS011;9823;50.936;4.046;2022-07-23T11:04:50;11.93;;;4.33;;
19374;SDS011;9823;50.936;4.046;2022-07-23T11:07:16;6.00;;;4.10;;
19374;SDS011;9823;50.936;4.046;2022-07-23T11:09:45;5.33;;;4.37;;
19374;SDS011;9823;50.936;4.046;2022-07-23T11:17:23;8.37;;;4.73;;
19374;SDS011;9823;50.936;4.046;2022-07-23T11:25:14;8.43;;;4.10;;
19374;SDS011;9823;50.936;4.046;2022-07-23T11:28:18;17.87;;;7.07;;
19374;SDS011;9823;50.936;4.046;2022-07-23T11:30:46;6.90;;;3.60;;
19374;SDS011;9823;50.936;4.046;2022-07-23T11:35:41;6.30;;;3.27;;
19374;SDS011;9823;50.936;4.046;2022-07-23T11:40:37;8.63;;;3.97;;
19374;SDS011;9823;50.936;4.046;2022-07-23T11:43:05;6.10;;;2.83;;
19374;SDS011;9823;50.936;4.046;2022-07-23T11:45:36;5.77;;;3.13;;
19374;SDS011;9823;50.936;4.046;2022-07-23T11:48:03;4.03;;;2.63;;
19374;SDS011;9823;50.936;4.046;2022-07-23T11:50:29;4.93;;;3.00;;
19374;SDS011;9823;50.936;4.046;2022-07-23T11:52:56;4.10;;;3.17;;
19374;SDS011;9823;50.936;4.046;2022-07-23T11:55:25;7.43;;;3.57;;
19374;SDS011;9823;50.936;4.046;2022-07-23T11:57:53;5.53;;;3.00;;
19374;SDS011;9823;50.936;4.046;2022-07-23T12:00:23;6.83;;;3.07;;
19374;SDS011;9823;50.936;4.046;2022-07-23T12:02:55;5.13;;;2.87;;
19374;SDS011;9823;50.936;4.046;2022-07-23T12:05:24;4.97;;;2.73;;
19374;SDS011;9823;50.936;4.046;2022-07-23T12:07:51;6.03;;;3.00;;
19374;SDS011;9823;50.936;4.046;2022-07-23T12:10:28;5.80;;;2.73;;
19374;SDS011;9823;50.936;4.046;2022-07-23T12:15:24;7.73;;;2.90;;
19374;SDS011;9823;50.936;4.046;2022-07-23T12:17:51;4.27;;;2.30;;
19374;SDS011;9823;50.936;4.046;2022-07-23T12:20:21;3.83;;;2.87;;
19374;SDS011;9823;50.936;4.046;2022-07-23T12:22:49;4.63;;;2.57;;
19374;SDS011;9823;50.936;4.046;2022-07-23T12:25:16;4.23;;;2.63;;
19374;SDS011;9823;50.936;4.046;2022-07-23T12:27:43;4.83;;;3.10;;
19374;SDS011;9823;50.936;4.046;2022-07-23T12:30:15;8.00;;;3.77;;
19374;SDS011;9823;50.936;4.046;2022-07-23T12:32:45;3.40;;;2.50;;
19374;SDS011;9823;50.936;4.046;2022-07-23T12:35:14;5.57;;;3.10;;
19374;SDS011;9823;50.936;4.046;2022-07-23T12:37:49;3.77;;;2.70;;
19374;SDS011;9823;50.936;4.046;2022-07-23T12:42:47;4.27;;;3.00;;
19374;SDS011;9823;50.936;4.046;2022-07-23T12:45:13;7.80;;;3.40;;
19374;SDS011;9823;50.936;4.046;2022-07-23T12:50:31;4.67;;;3.23;;
19374;SDS011;9823;50.936;4.046;2022-07-23T12:53:02;4.83;;;3.07;;
19374;SDS011;9823;50.936;4.046;2022-07-23T12:55:28;4.73;;;3.10;;
19374;SDS011;9823;50.936;4.046;2022-07-23T12:58:02;6.17;;;3.10;;
19374;SDS011;9823;50.936;4.046;2022-07-23T13:00:29;6.43;;;3.23;;
19374;SDS011;9823;50.936;4.046;2022-07-23T13:02:55;7.20;;;3.47;;
19374;SDS011;9823;50.936;4.046;2022-07-23T13:05:21;7.43;;;3.30;;
19374;SDS011;9823;50.936;4.046;2022-07-23T13:07:52;5.13;;;3.30;;
19374;SDS011;9823;50.936;4.046;2022-07-23T13:10:18;5.30;;;3.33;;
19374;SDS011;9823;50.936;4.046;2022-07-23T13:12:44;7.40;;;4.27;;
19374;SDS011;9823;50.936;4.046;2022-07-23T13:15:12;6.03;;;3.47;;
19374;SDS011;9823;50.936;4.046;2022-07-23T13:17:40;7.73;;;3.60;;
19374;SDS011;9823;50.936;4.046;2022-07-23T13:20:09;4.30;;;3.33;;
19374;SDS011;9823;50.936;4.046;2022-07-23T13:22:35;6.00;;;4.03;;
19374;SDS011;9823;50.936;4.046;2022-07-23T13:25:06;7.90;;;3.57;;
19374;SDS011;9823;50.936;4.046;2022-07-23T13:27:33;12.03;;;4.90;;
19374;SDS011;9823;50.936;4.046;2022-07-23T13:29:59;5.93;;;3.70;;
19374;SDS011;9823;50.936;4.046;2022-07-23T13:32:25;6.30;;;3.17;;
19374;SDS011;9823;50.936;4.046;2022-07-23T13:34:51;4.93;;;3.73;;
19374;SDS011;9823;50.936;4.046;2022-07-23T13:37:17;7.80;;;4.20;;
19374;SDS011;9823;50.936;4.046;2022-07-23T13:39:43;4.90;;;3.00;;
19374;SDS011;9823;50.936;4.046;2022-07-23T13:42:09;6.73;;;3.30;;
19374;SDS011;9823;50.936;4.046;2022-07-23T13:44:35;6.83;;;3.63;;
19374;SDS011;9823;50.936;4.046;2022-07-23T13:47:00;4.23;;;2.83;;
19374;SDS011;9823;50.936;4.046;2022-07-23T13:49:27;4.30;;;3.17;;
19374;SDS011;9823;50.936;4.046;2022-07-23T13:51:53;5.23;;;3.30;;
19374;SDS011;9823;50.936;4.046;2022-07-23T13:54:19;6.03;;;3.63;;
19374;SDS011;9823;50.936;4.046;2022-07-23T13:56:47;6.87;;;4.00;;
19374;SDS011;9823;50.936;4.046;2022-07-23T13:59:13;7.67;;;3.90;;
19374;SDS011;9823;50.936;4.046;2022-07-23T14:01:41;10.63;;;3.90;;
19374;SDS011;9823;50.936;4.046;2022-07-23T14:04:07;6.87;;;3.90;;
19374;SDS011;9823;50.936;4.046;2022-07-23T14:06:33;6.17;;;3.63;;
19374;SDS011;9823;50.936;4.046;2022-07-23T14:08:59;5.43;;;3.30;;
19374;SDS011;9823;50.936;4.046;2022-07-23T14:11:28;4.50;;;3.50;;
19374;SDS011;9823;50.936;4.046;2022-07-23T14:13:55;6.43;;;3.53;;
19374;SDS011;9823;50.936;4.046;2022-07-23T14:16:21;6.70;;;3.67;;
19374;SDS011;9823;50.936;4.046;2022-07-23T14:18:48;5.03;;;3.90;;
19374;SDS011;9823;50.936;4.046;2022-07-23T14:21:14;7.33;;;4.20;;
19374;SDS011;9823;50.936;4.046;2022-07-23T14:23:42;7.33;;;4.17;;
19374;SDS011;9823;50.936;4.046;2022-07-23T14:26:10;8.53;;;4.80;;
19374;SDS011;9823;50.936;4.046;2022-07-23T14:28:36;9.90;;;4.47;;
19374;SDS011;9823;50.936;4.046;2022-07-23T14:31:02;8.97;;;4.50;;
19374;SDS011;9823;50.936;4.046;2022-07-23T14:33:28;7.00;;;4.70;;
19374;SDS011;9823;50.936;4.046;2022-07-23T14:35:54;6.97;;;4.27;;
19374;SDS011;9823;50.936;4.046;2022-07-23T14:38:20;5.73;;;4.10;;
19374;SDS011;9823;50.936;4.046;2022-07-23T14:40:46;5.47;;;4.17;;
19374;SDS011;9823;50.936;4.046;2022-07-23T14:43:12;6.27;;;3.60;;
19374;SDS011;9823;50.936;4.046;2022-07-23T14:45:38;8.97;;;3.97;;
19374;SDS011;9823;50.936;4.046;2022-07-23T14:48:05;7.07;;;3.43;;
19374;SDS011;9823;50.936;4.046;2022-07-23T14:50:31;8.90;;;3.90;;
19374;SDS011;9823;50.936;4.046;2022-07-23T14:52:59;5.53;;;3.93;;
19374;SDS011;9823;50.936;4.046;2022-07-23T14:55:25;6.67;;;4.23;;
19374;SDS011;9823;50.936;4.046;2022-07-23T14:57:54;8.47;;;4.47;;
19374;SDS011;9823;50.936;4.046;2022-07-23T15:00:22;9.17;;;4.73;;
19374;SDS011;9823;50.936;4.046;2022-07-23T15:02:51;5.53;;;4.23;;
19374;SDS011;9823;50.936;4.046;2022-07-23T15:05:23;11.53;;;4.17;;
19374;SDS011;9823;50.936;4.046;2022-07-23T15:07:49;7.83;;;4.63;;
19374;SDS011;9823;50.936;4.046;2022-07-23T15:10:18;6.17;;;4.60;;
19374;SDS011;9823;50.936;4.046;2022-07-23T15:12:46;7.40;;;4.93;;
19374;SDS011;9823;50.936;4.046;2022-07-23T15:15:15;5.83;;;4.20;;
19374;SDS011;9823;50.936;4.046;2022-07-23T15:17:42;8.70;;;4.70;;
19374;SDS011;9823;50.936;4.046;2022-07-23T15:20:10;6.33;;;4.80;;
19374;SDS011;9823;50.936;4.046;2022-07-23T15:22:36;6.10;;;5.10;;
19374;SDS011;9823;50.936;4.046;2022-07-23T15:25:03;8.13;;;4.93;;
19374;SDS011;9823;50.936;4.046;2022-07-23T15:27:29;7.17;;;5.13;;
19374;SDS011;9823;50.936;4.046;2022-07-23T15:29:55;9.03;;;4.70;;
19374;SDS011;9823;50.936;4.046;2022-07-23T15:32:21;7.57;;;4.77;;
19374;SDS011;9823;50.936;4.046;2022-07-23T15:34:50;7.33;;;5.20;;